Rougon, Louisiana
Current Conditions -  °F | °C
As of 7:55 AM on Wednesday 28 Jan 2015 (Local Time) from KHZR Reporting Station
Clear Clear  
Wind Chill: 44°   Ceiling: Unl
Heat Index: 47°   Visibility: 10mi
Dew Point: 38°   Wind: 6mph
Humidity: 71%   Direction: 100°E
Pressure: 30.26"   Gusts: NA
Location:  30.61°N, 91.37°W
Report Text: KHZR 281355Z AUTO 10005KT 10SM CLR 08/03 A3026 RMK AO2 T00810032
Loading
Personal Weather Stations






























Interactive Weather Map New forecast layout! Learn more

10-Day Weather Forecast

Advertisements
Track Severe Weather on mobile